Time;durP1;ratioP1;P1;durP2;ratioP2;P2;SDS_P1;SDS_P2;PMS_P1;PMS_P2;Temp;Humidity;BMP_temperature;BMP_pressure;BME280_temperature;BME280_humidity;BME280_pressure;Samples;Min_cycle;Max_cycle;Signal;HPM_P1;HPM_P2
2023/02/16 00:02:47;;;;;;;33.67;25.00;;;;;;;2.80;65.62;99012.25;8417102;28;20238;-67
2023/02/16 00:06:51;;;;;;;30.67;23.80;;;;;;;3.40;63.68;98969.72;8417350;28;20243;-67
2023/02/16 00:15:18;;;;;;;27.40;21.83;;;;;;;2.05;68.20;98947.16;8417187;28;20225;-67
2023/02/16 00:19:22;;;;;;;28.13;21.77;;;;;;;2.50;67.66;98996.81;8416932;28;20409;-67
2023/02/16 00:23:25;;;;;;;26.50;20.97;;;;;;;3.28;64.67;98992.78;8417001;28;20235;-67
2023/02/16 00:27:28;;;;;;;30.73;23.30;;;;;;;2.51;67.02;98987.41;8416786;28;20224;-67
2023/02/16 00:31:32;;;;;;;28.17;21.60;;;;;;;2.89;65.59;98995.25;8416637;28;20224;-66
2023/02/16 00:35:35;;;;;;;30.77;23.57;;;;;;;2.64;66.79;99001.13;8416466;28;20231;-67
2023/02/16 00:39:39;;;;;;;32.50;23.80;;;;;;;2.22;68.16;99003.47;8416605;28;20232;-67
2023/02/16 00:43:42;;;;;;;32.47;23.77;;;;;;;2.93;65.89;99004.66;8415982;28;20220;-67
2023/02/16 00:47:47;;;;;;;31.90;23.17;;;;;;;2.96;66.38;99011.47;8416382;28;20236;-67
2023/02/16 00:51:50;;;;;;;29.40;22.97;;;;;;;3.31;64.46;98996.19;8416028;28;20243;-67
2023/02/16 00:55:53;;;;;;;30.47;23.20;;;;;;;2.87;65.15;98989.25;8416132;28;20229;-67
2023/02/16 00:59:59;;;;;;;33.97;24.70;;;;;;;2.27;68.24;98994.13;8415855;28;20232;-67
2023/02/16 01:04:06;;;;;;;31.83;23.87;;;;;;;3.02;66.08;99001.25;8415744;28;20290;-67
2023/02/16 01:12:31;;;;;;;33.47;25.00;;;;;;;3.12;64.48;98989.31;8415474;28;20235;-67
2023/02/16 01:16:38;;;;;;;37.07;26.07;;;;;;;2.56;65.46;98990.88;8415575;28;20236;-67
2023/02/16 01:20:42;;;;;;;31.70;24.40;;;;;;;3.00;63.37;98979.06;8415484;28;20531;-67
2023/02/16 01:24:45;;;;;;;36.13;26.03;;;;;;;2.80;65.80;98974.75;8414872;28;20251;-67
2023/02/16 01:28:48;;;;;;;37.47;27.20;;;;;;;2.00;67.33;98963.28;8414966;28;20228;-67
2023/02/16 01:32:51;;;;;;;34.90;25.23;;;;;;;2.97;65.02;98971.38;8414632;28;20225;-67
2023/02/16 01:36:55;;;;;;;38.03;26.20;;;;;;;2.90;65.33;98976.47;8414758;28;20236;-67
2023/02/16 01:41:05;;;;;;;38.43;26.90;;;;;;;2.79;65.89;98973.03;8414620;28;20540;-67
2023/02/16 01:45:11;;;;;;;34.43;25.13;;;;;;;3.24;62.77;98965.47;8414690;28;20224;-67
2023/02/16 01:49:15;;;;;;;33.03;24.47;;;;;;;3.48;63.08;98979.97;8414408;28;20223;-68
2023/02/16 01:53:23;;;;;;;37.43;26.40;;;;;;;3.36;63.08;98973.16;8414203;28;20232;-67
2023/02/16 01:57:31;;;;;;;35.57;25.27;;;;;;;3.19;62.49;98944.13;8414130;28;20248;-67
2023/02/16 02:01:40;;;;;;;32.80;24.50;;;;;;;3.75;61.38;98965.44;8413571;28;20346;-67
2023/02/16 02:05:43;;;;;;;36.13;25.37;;;;;;;3.25;62.64;98960.31;8420803;28;20500;-67
2023/02/16 02:09:57;;;;;;;34.67;24.93;;;;;;;3.32;61.99;98959.47;8413607;28;20228;-68
2023/02/16 02:14:03;;;;;;;32.47;23.50;;;;;;;3.79;60.54;98946.66;8413498;28;20238;-67
2023/02/16 02:18:06;;;;;;;34.07;25.17;;;;;;;3.92;60.00;98935.53;8413346;28;20555;-67
2023/02/16 02:27:03;;;;;;;33.30;24.57;;;;;;;3.77;59.75;98927.88;8445610;28;20231;-67
2023/02/16 02:31:09;;;;;;;36.37;25.97;;;;;;;3.34;61.34;98926.22;8445803;28;20224;-67
2023/02/16 02:35:25;;;;;;;35.67;26.70;;;;;;;3.49;60.83;98922.78;8445586;28;20285;-67
2023/02/16 02:39:34;;;;;;;32.87;24.13;;;;;;;4.00;59.36;98926.13;8445921;28;20224;-67
2023/02/16 02:43:43;;;;;;;35.70;25.60;;;;;;;3.62;60.24;98929.63;8445623;28;20227;-68
2023/02/16 02:47:46;;;;;;;38.97;27.43;;;;;;;2.91;62.16;98927.03;8411408;28;20243;-67
2023/02/16 02:51:50;;;;;;;34.60;25.20;;;;;;;3.32;60.87;98915.13;8411646;28;20232;-67
2023/02/16 03:04:39;;;;;;;34.97;25.90;;;;;;;3.58;60.15;98915.09;8411767;28;20231;-68
2023/02/16 03:08:43;;;;;;;33.27;24.33;;;;;;;3.55;59.45;98912.53;8411596;28;20415;-67
2023/02/16 03:12:45;;;;;;;33.97;24.87;;;;;;;3.35;60.86;98904.00;8411367;28;20232;-67
2023/02/16 03:29:57;;;;;;;33.13;24.13;;;;;;;3.55;59.04;98902.28;8410969;28;20228;-67
2023/02/16 03:34:01;;;;;;;34.93;24.73;;;;;;;3.59;58.26;98880.94;8410643;28;20244;-67
2023/02/16 03:38:05;;;;;;;33.47;23.57;;;;;;;3.80;57.74;98889.44;8410865;28;20223;-67
2023/02/16 03:42:07;;;;;;;32.63;23.60;;;;;;;3.77;58.15;98892.88;8410952;28;20232;-67
2023/02/16 03:46:10;;;;;;;32.77;24.17;;;;;;;3.75;58.17;98903.97;8410725;28;20235;-67
2023/02/16 03:50:15;;;;;;;32.00;24.10;;;;;;;3.78;57.69;98902.25;8410782;28;20492;-67
2023/02/16 03:54:17;;;;;;;30.23;22.73;;;;;;;3.78;57.70;98888.59;8410616;28;20252;-67
2023/02/16 03:58:21;;;;;;;32.80;24.10;;;;;;;3.65;57.95;98914.22;8410692;28;20266;-67
2023/02/16 04:02:25;;;;;;;33.53;24.30;;;;;;;3.49;57.98;98927.91;8410251;28;20570;-67
2023/02/16 04:06:29;;;;;;;32.17;23.63;;;;;;;3.60;57.83;98917.63;8410459;28;20387;-67
2023/02/16 04:10:32;;;;;;;34.73;24.37;;;;;;;3.50;57.19;98874.13;8410552;28;20228;-67
2023/02/16 04:14:35;;;;;;;35.00;25.10;;;;;;;3.77;57.29;98927.88;8410505;28;20228;-67
2023/02/16 04:18:37;;;;;;;34.10;24.70;;;;;;;3.45;57.77;98913.41;8410395;28;20536;-67
2023/02/16 04:22:42;;;;;;;33.67;23.53;;;;;;;3.77;57.22;98912.50;8410083;28;20235;-67
2023/02/16 04:26:45;;;;;;;32.67;24.20;;;;;;;3.76;57.54;98911.66;8409805;28;20523;-67
2023/02/16 04:30:48;;;;;;;33.40;25.03;;;;;;;3.56;57.52;98913.38;8413614;28;20231;-67
2023/02/16 04:34:50;;;;;;;31.80;24.03;;;;;;;3.39;58.33;98914.25;8416277;28;20224;-67
2023/02/16 04:38:54;;;;;;;34.07;24.47;;;;;;;3.52;58.23;98905.72;8416214;28;20232;-67
2023/02/16 04:42:57;;;;;;;34.70;25.20;;;;;;;3.10;59.11;98915.13;8415803;28;20232;-67
2023/02/16 04:47:00;;;;;;;33.03;23.97;;;;;;;3.14;58.73;98898.03;8416128;28;20467;-67
2023/02/16 04:51:04;;;;;;;33.43;23.97;;;;;;;3.08;59.38;98905.72;8415796;28;20228;-67
2023/02/16 04:55:09;;;;;;;30.63;23.47;;;;;;;2.67;60.14;98879.22;8415584;28;20283;-67
2023/02/16 04:59:12;;;;;;;35.20;25.17;;;;;;;1.23;62.21;98771.34;8415523;28;20313;-68
2023/02/16 05:03:15;;;;;;;30.30;22.60;;;;;;;2.78;60.39;98909.06;8415169;28;20232;-67
2023/02/16 05:07:18;;;;;;;31.80;23.13;;;;;;;2.61;61.47;98914.16;8415361;28;20239;-68
2023/02/16 05:15:43;;;;;;;30.67;22.40;;;;;;;2.82;61.06;98915.91;8447959;28;20214;-69
2023/02/16 05:19:47;;;;;;;28.07;20.43;;;;;;;2.38;62.21;98917.50;8448194;28;20417;-67
2023/02/16 05:23:50;;;;;;;29.07;21.73;;;;;;;3.09;60.14;98928.75;8448281;28;20592;-69
2023/02/16 05:27:54;;;;;;;30.37;21.30;;;;;;;2.70;61.91;98921.84;8448188;28;20499;-67
2023/02/16 05:31:58;;;;;;;34.63;22.73;;;;;;;1.94;64.06;98918.13;8447622;28;20224;-67
2023/02/16 05:36:00;;;;;;;33.83;22.60;;;;;;;2.07;63.37;98907.13;8447898;28;20425;-67
2023/02/16 05:40:03;;;;;;;37.97;23.07;;;;;;;1.99;64.06;98926.69;8447254;28;20234;-67
2023/02/16 05:44:08;;;;;;;38.23;21.93;;;;;;;1.59;65.63;98923.88;8447008;28;20515;-67
2023/02/16 05:48:12;;;;;;;30.10;22.03;;;;;;;2.30;64.14;98919.16;8447348;28;20230;-68
2023/02/16 05:52:17;;;;;;;31.83;23.03;;;;;;;1.90;66.17;98921.53;8447187;28;20235;-67
2023/02/16 05:56:21;;;;;;;33.10;21.47;;;;;;;1.55;63.04;98759.59;8447264;28;20235;-67
2023/02/16 06:00:25;;;;;;;41.53;23.13;;;;;;;2.10;63.54;98936.97;8446628;28;20232;-68
2023/02/16 06:04:28;;;;;;;39.03;21.07;;;;;;;2.72;62.38;98940.59;8446706;28;20250;-68
2023/02/16 06:08:32;;;;;;;29.77;21.47;;;;;;;2.21;64.94;98907.22;8446445;28;20231;-69
2023/02/16 06:12:34;;;;;;;36.33;23.60;;;;;;;2.27;63.46;98944.72;8446590;28;20235;-68
2023/02/16 06:16:40;;;;;;;29.23;20.77;;;;;;;2.37;62.73;98913.22;8446166;28;20223;-66
2023/02/16 06:20:43;;;;;;;45.30;20.73;;;;;;;1.86;65.52;98953.00;8412174;28;20220;-67
2023/02/16 06:24:45;;;;;;;31.50;20.73;;;;;;;2.42;64.26;98952.47;8412583;28;20305;-67
2023/02/16 06:28:48;;;;;;;60.30;21.00;;;;;;;2.22;63.98;98964.28;8412445;28;20228;-67
2023/02/16 06:32:52;;;;;;;40.33;21.07;;;;;;;2.22;64.43;98954.91;8411757;28;20240;-68
2023/02/16 06:36:55;;;;;;;28.37;20.43;;;;;;;2.28;65.91;98964.31;8411744;28;20232;-67
2023/02/16 06:40:58;;;;;;;35.50;21.87;;;;;;;2.78;62.33;98952.56;8411886;28;20570;-67
2023/02/16 06:45:01;;;;;;;39.87;22.10;;;;;;;2.13;65.75;98955.72;8411919;28;20679;-67
2023/02/16 06:49:11;;;;;;;28.23;20.73;;;;;;;3.01;62.90;98970.53;8411585;28;20228;-69
2023/02/16 06:53:14;;;;;;;31.07;21.87;;;;;;;3.16;62.65;98973.16;8411687;28;20236;-67
2023/02/16 06:57:17;;;;;;;31.87;21.57;;;;;;;3.16;63.74;98973.16;8411590;28;20546;-66
2023/02/16 07:01:21;;;;;;;35.87;24.73;;;;;;;2.94;63.24;98960.28;8411212;28;20376;-68
2023/02/16 07:05:26;;;;;;;38.00;24.13;;;;;;;2.72;63.86;98958.50;8411213;28;20232;-68
2023/02/16 07:09:29;;;;;;;46.73;24.00;;;;;;;2.12;66.96;98968.50;8411279;28;20278;-67
2023/02/16 07:13:35;;;;;;;32.60;23.27;;;;;;;2.07;68.00;98947.16;8411024;28;20541;-68
2023/02/16 07:17:38;;;;;;;30.80;21.97;;;;;;;2.63;64.98;98976.41;8410715;28;20547;-68
2023/02/16 07:21:42;;;;;;;31.63;22.63;;;;;;;2.22;67.81;98966.84;8410850;28;20657;-66
2023/02/16 07:25:45;;;;;;;32.33;22.57;;;;;;;3.06;64.34;98974.81;8410485;28;20228;-66
2023/02/16 07:29:48;;;;;;;29.63;21.90;;;;;;;2.06;64.81;98825.38;8410862;28;20228;-67
2023/02/16 07:33:51;;;;;;;31.77;22.53;;;;;;;2.77;64.04;98974.75;8410777;28;20232;-66
2023/02/16 07:37:55;;;;;;;28.83;21.47;;;;;;;2.67;64.68;98973.84;8411374;28;20232;-66
2023/02/16 07:41:57;;;;;;;31.13;22.47;;;;;;;2.97;65.37;98968.81;8410817;28;20239;-67
2023/02/16 07:46:00;;;;;;;31.37;22.67;;;;;;;3.21;63.86;98973.13;8411005;28;20235;-67
2023/02/16 07:50:03;;;;;;;28.63;21.67;;;;;;;3.15;63.02;98968.84;8410635;28;20227;-67
2023/02/16 07:54:08;;;;;;;29.23;21.23;;;;;;;3.43;62.51;98967.19;8410639;28;20239;-67
2023/02/16 07:58:11;;;;;;;28.83;21.63;;;;;;;3.03;63.27;98939.00;8410751;28;20231;-67
2023/02/16 08:02:16;;;;;;;27.70;20.30;;;;;;;3.47;62.98;98942.44;8409906;28;20232;-68
2023/02/16 08:06:20;;;;;;;29.10;20.27;;;;;;;4.84;58.16;98967.69;8415478;28;20578;-68
2023/02/16 08:10:28;;;;;;;25.43;19.77;;;;;;;4.19;58.10;98957.69;8416612;28;20228;-68
2023/02/16 08:14:33;;;;;;;24.37;18.80;;;;;;;5.53;56.95;98953.53;8416254;28;20591;-68
2023/02/16 08:18:37;;;;;;;23.97;19.20;;;;;;;5.34;56.58;98933.13;8416264;28;20228;-68
2023/02/16 08:22:39;;;;;;;22.57;18.53;;;;;;;5.94;55.71;98966.03;8416956;28;20228;-68
2023/02/16 08:26:48;;;;;;;21.87;18.57;;;;;;;6.83;52.67;98964.16;8416711;28;20212;-68
2023/02/16 08:30:52;;;;;;;22.63;17.80;;;;;;;7.89;49.30;98961.72;8416815;28;20291;-68
2023/02/16 08:34:56;;;;;;;18.33;16.07;;;;;;;7.51;51.34;98964.03;8416868;28;20242;-68
2023/02/16 08:38:59;;;;;;;19.57;16.33;;;;;;;7.79;50.47;98942.97;8416902;28;20224;-69
2023/02/16 08:43:03;;;;;;;19.47;15.90;;;;;;;8.52;48.30;98974.31;8416630;28;20523;-68
2023/02/16 08:47:08;;;;;;;17.47;15.67;;;;;;;8.16;49.25;98973.25;8416626;28;20231;-68
2023/02/16 08:51:14;;;;;;;19.87;15.87;;;;;;;8.34;47.88;98959.13;8416306;28;20231;-68
2023/02/16 08:55:17;;;;;;;18.37;15.83;;;;;;;8.22;48.29;98960.22;8416156;28;20227;-68
2023/02/16 08:59:22;;;;;;;18.10;16.20;;;;;;;8.35;47.84;98986.66;8416321;28;20227;-68
2023/02/16 09:03:25;;;;;;;17.70;15.80;;;;;;;9.59;44.64;98983.16;8415899;28;20422;-69
2023/02/16 09:07:28;;;;;;;17.13;15.27;;;;;;;10.11;44.83;99006.88;8415709;28;20240;-68
2023/02/16 09:11:31;;;;;;;16.33;14.67;;;;;;;10.74;43.36;99011.25;8415752;28;20443;-69
2023/02/16 09:15:35;;;;;;;16.30;14.60;;;;;;;11.12;42.16;99005.84;8414026;28;20237;-69
2023/02/16 09:19:42;;;;;;;15.37;13.77;;;;;;;11.42;40.94;99011.81;8415331;28;20238;-69
2023/02/16 09:23:47;;;;;;;16.53;14.83;;;;;;;11.54;40.56;99011.44;8415164;28;20234;-68
2023/02/16 09:27:50;;;;;;;16.03;14.37;;;;;;;11.60;40.73;99001.78;8415249;28;20230;-69
2023/02/16 09:31:54;;;;;;;15.97;14.37;;;;;;;11.88;40.14;98996.53;8415003;28;20559;-69
2023/02/16 09:35:57;;;;;;;16.87;15.17;;;;;;;11.73;41.02;99000.50;8415084;28;20630;-68
2023/02/16 09:40:03;;;;;;;16.50;14.83;;;;;;;12.56;39.23;99007.22;8414552;28;20282;-68
2023/02/16 09:44:12;;;;;;;12.43;11.13;;;;;;;12.29;58.90;99012.50;8414567;28;20220;-68
2023/02/16 09:48:22;;;;;;;15.80;14.23;;;;;;;12.30;44.35;99009.00;8414480;28;20258;-70
2023/02/16 09:52:30;;;;;;;16.67;14.97;;;;;;;11.58;41.79;99001.00;8414433;28;20259;-70
2023/02/16 09:56:36;;;;;;;15.93;14.33;;;;;;;11.70;43.06;99005.78;8414231;28;20232;-70
2023/02/16 10:00:45;;;;;;;17.27;15.77;;;;;;;13.10;38.76;99000.91;8412298;28;20736;-69
2023/02/16 10:04:59;;;;;;;16.77;15.07;;;;;;;13.27;38.48;99003.69;8413757;28;20230;-69
2023/02/16 10:09:06;;;;;;;17.65;16.05;;;;;;;12.54;37.95;99001.22;8412554;28;20408;-70
2023/02/16 10:13:17;;;;;;;16.07;14.47;;;;;;;12.84;39.35;99002.72;8413670;28;20232;-69
2023/02/16 10:17:27;;;;;;;17.65;15.95;;;;;;;12.73;38.19;98976.25;8412814;28;20436;-70
2023/02/16 10:21:32;;;;;;;15.27;13.77;;;;;;;13.14;38.49;98997.28;8413644;28;20248;-69
2023/02/16 10:25:41;;;;;;;15.73;14.20;;;;;;;13.24;38.71;98990.78;8413290;28;20229;-69
2023/02/16 10:29:44;;;;;;;16.43;14.73;;;;;;;13.27;38.21;98992.44;8412265;28;20217;-70
2023/02/16 10:33:55;;;;;;;15.27;13.83;;;;;;;13.83;38.40;98988.50;8413072;28;20251;-70
2023/02/16 10:38:05;;;;;;;16.60;14.98;;;;;;;14.04;37.64;98985.00;8412960;28;20408;-70
2023/02/16 10:42:17;;;;;;;17.33;15.80;;;;;;;14.31;36.93;98984.72;8411744;28;20511;-69
2023/02/16 10:46:22;;;;;;;17.07;15.37;;;;;;;14.35;37.19;98978.47;8412680;28;20811;-69
2023/02/16 10:50:28;;;;;;;16.47;14.90;;;;;;;14.08;38.09;98973.53;8412537;28;20225;-70
2023/02/16 10:54:33;;;;;;;16.00;14.33;;;;;;;14.48;37.43;98974.41;8412124;28;20235;-67
2023/02/16 10:58:39;;;;;;;15.60;14.00;;;;;;;14.26;37.75;98956.28;8412317;28;20227;-67
2023/02/16 11:02:44;;;;;;;18.13;16.30;;;;;;;12.60;40.76;98947.28;8411505;28;20267;-67
2023/02/16 11:07:02;;;;;;;15.73;14.13;;;;;;;13.98;37.85;98946.19;8412136;28;20249;-67
2023/02/16 11:11:10;;;;;;;15.20;13.80;;;;;;;14.13;38.64;98942.09;8411791;28;20227;-67
2023/02/16 11:15:23;;;;;;;15.63;13.80;;;;;;;14.28;38.57;98925.78;8411563;28;20234;-68
2023/02/16 11:19:27;;;;;;;14.60;13.20;;;;;;;14.21;38.46;98929.56;8411969;28;20226;-68
2023/02/16 11:23:31;;;;;;;16.47;14.77;;;;;;;14.25;38.30;98925.06;8411790;28;20224;-68
2023/02/16 11:27:35;;;;;;;15.07;13.57;;;;;;;14.18;38.77;98921.03;8411734;28;20233;-68
2023/02/16 11:31:39;;;;;;;16.17;14.50;;;;;;;13.87;39.58;98911.94;8411319;28;20556;-68
2023/02/16 11:35:44;;;;;;;15.37;13.93;;;;;;;14.45;38.76;98919.81;8411027;28;20225;-68
2023/02/16 11:39:49;;;;;;;16.53;14.83;;;;;;;13.92;39.97;98917.81;8410618;28;20231;-68
2023/02/16 11:43:55;;;;;;;15.60;14.00;;;;;;;14.03;39.38;98910.38;8411173;28;20241;-68
2023/02/16 11:48:02;;;;;;;15.83;14.23;;;;;;;13.66;40.26;98903.28;8410817;28;20238;-68
2023/02/16 11:52:24;;;;;;;15.97;14.33;;;;;;;13.12;40.66;98908.06;8411010;28;20225;-68
2023/02/16 11:56:28;;;;;;;16.40;14.70;;;;;;;13.35;40.63;98901.13;8410979;28;20230;-68
2023/02/16 12:00:33;;;;;;;14.73;13.33;;;;;;;13.78;40.43;98887.13;8410994;28;20248;-68
2023/02/16 12:04:51;;;;;;;14.93;13.40;;;;;;;13.89;40.66;98882.31;8410831;28;20232;-68
2023/02/16 12:09:03;;;;;;;18.97;14.57;;;;;;;13.86;40.68;98879.88;8410633;28;20332;-68
2023/02/16 12:13:13;;;;;;;15.20;12.87;;;;;;;14.00;40.69;98875.81;8410802;28;20229;-68
2023/02/16 12:17:27;;;;;;;15.63;14.13;;;;;;;13.47;41.87;98870.22;8410569;28;20250;-67
2023/02/16 12:21:36;;;;;;;15.50;14.00;;;;;;;14.04;41.22;98873.00;8410675;28;20231;-68
2023/02/16 12:25:44;;;;;;;14.80;13.40;;;;;;;13.95;41.80;98870.78;8410894;28;20233;-68
2023/02/16 12:29:54;;;;;;;15.07;13.47;;;;;;;13.98;41.33;98870.66;8410424;28;20488;-67
2023/02/16 12:34:08;;;;;;;15.33;13.77;;;;;;;14.14;41.11;98862.19;8410377;28;20247;-68
2023/02/16 12:38:21;;;;;;;14.97;13.43;;;;;;;14.17;41.17;98852.47;8410774;28;20232;-68
2023/02/16 12:42:36;;;;;;;14.17;12.77;;;;;;;14.24;41.25;98851.28;8410551;28;20227;-68
2023/02/16 12:46:42;;;;;;;13.87;12.37;;;;;;;14.37;41.48;98848.94;8410429;28;20724;-67
2023/02/16 12:50:47;;;;;;;15.97;12.87;;;;;;;14.45;41.68;98844.25;8412065;28;20249;-68
2023/02/16 12:54:52;;;;;;;13.83;12.37;;;;;;;14.35;41.78;98809.09;8416237;28;20226;-68
2023/02/16 12:59:05;;;;;;;15.90;14.00;;;;;;;14.62;41.93;98842.63;8416445;28;20232;-67
2023/02/16 13:03:20;;;;;;;14.33;12.73;;;;;;;14.64;41.99;98830.38;8413647;28;20238;-66
2023/02/16 13:07:29;;;;;;;15.37;13.83;;;;;;;14.55;42.02;98822.97;8416194;28;20424;-67
2023/02/16 13:11:35;;;;;;;15.93;13.73;;;;;;;14.75;42.29;98807.25;8415764;28;20401;-68
2023/02/16 13:15:40;;;;;;;13.90;12.53;;;;;;;14.45;42.61;98820.78;8414820;28;20240;-68
2023/02/16 13:19:44;;;;;;;15.87;12.83;;;;;;;14.08;43.48;98779.94;8415234;28;20229;-68
2023/02/16 13:24:00;;;;;;;13.63;12.33;;;;;;;14.38;43.10;98819.38;8415158;28;20240;-68
2023/02/16 13:28:09;;;;;;;14.50;13.00;;;;;;;14.70;42.89;98806.63;8415181;28;20244;-68
2023/02/16 13:32:24;;;;;;;15.60;14.00;;;;;;;14.64;42.89;98812.13;8415071;28;20225;-70
2023/02/16 13:36:40;;;;;;;14.13;12.73;;;;;;;14.99;42.06;98800.00;8414818;28;20236;-69
2023/02/16 13:41:05;;;;;;;14.10;11.97;;;;;;;15.15;41.44;98788.81;8414209;28;20282;-71
2023/02/16 13:45:14;;;;;;;15.83;13.00;;;;;;;14.55;42.99;98792.53;8414536;28;20250;-70
2023/02/16 13:49:32;;;;;;;13.60;12.27;;;;;;;15.16;41.50;98769.63;8414478;28;20228;-67
2023/02/16 13:53:37;;;;;;;15.73;14.13;;;;;;;15.20;41.30;98792.03;8414522;28;20517;-68
2023/02/16 13:58:03;;;;;;;15.67;12.40;;;;;;;14.94;41.76;98793.31;8414246;28;20228;-69
2023/02/16 14:02:11;;;;;;;13.97;12.47;;;;;;;14.49;42.38;98774.59;8412794;28;20419;-67
2023/02/16 14:06:35;;;;;;;14.43;12.73;;;;;;;15.27;41.29;98805.59;8413982;28;20232;-69
2023/02/16 14:10:58;;;;;;;12.93;11.00;;;;;;;15.49;39.92;98802.78;8413580;28;20240;-68
2023/02/16 14:15:03;;;;;;;12.47;10.47;;;;;;;15.24;39.97;98796.19;8412795;28;20231;-68
2023/02/16 14:19:18;;;;;;;10.53;9.43;;;;;;;14.84;40.46;98795.53;8413289;28;20236;-68
2023/02/16 14:23:28;;;;;;;11.53;9.27;;;;;;;14.65;41.53;98799.03;8413293;28;20228;-68
2023/02/16 14:27:46;;;;;;;10.73;9.63;;;;;;;14.46;41.30;98796.41;8413340;28;20354;-68
2023/02/16 14:31:58;;;;;;;12.63;10.13;;;;;;;14.57;41.54;98797.72;8412634;28;20484;-69
2023/02/16 14:36:08;;;;;;;12.60;10.27;;;;;;;14.70;41.70;98800.56;8412722;28;20244;-69
2023/02/16 14:40:17;;;;;;;10.97;9.60;;;;;;;14.85;42.13;98805.06;8413089;28;20564;-68
2023/02/16 14:44:37;;;;;;;10.67;9.57;;;;;;;14.60;42.07;98808.84;8412466;28;20228;-69
2023/02/16 14:49:26;;;;;;;12.20;9.67;;;;;;;14.57;42.30;98806.38;8412525;28;20245;-69
2023/02/16 14:53:54;;;;;;;12.83;9.37;;;;;;;14.69;42.39;98796.28;8384455;28;20223;-69
2023/02/16 14:58:00;;;;;;;10.90;9.10;;;;;;;14.08;41.83;98751.31;8445522;28;20227;-69
2023/02/16 15:02:28;;;;;;;9.37;8.10;;;;;;;14.09;41.89;98802.50;8445154;28;20636;-69
2023/02/16 15:06:34;;;;;;;10.33;8.67;;;;;;;13.88;42.18;98793.88;8445345;28;20235;-69
2023/02/16 15:10:39;;;;;;;11.10;8.33;;;;;;;13.89;42.82;98804.22;8445529;28;20227;-69
2023/02/16 15:14:44;;;;;;;9.93;7.40;;;;;;;13.87;43.36;98803.44;8411298;28;20229;-68
2023/02/16 15:18:49;;;;;;;7.47;6.77;;;;;;;13.66;43.05;98796.56;8411826;28;20241;-69
2023/02/16 15:22:53;;;;;;;7.20;6.50;;;;;;;13.54;43.11;98789.31;8411912;28;20237;-69
2023/02/16 15:27:00;;;;;;;8.00;7.20;;;;;;;13.39;42.75;98791.66;8411804;28;20431;-69
2023/02/16 15:31:06;;;;;;;9.00;6.40;;;;;;;13.44;43.70;98778.44;8411595;28;20417;-69
2023/02/16 15:35:11;;;;;;;7.97;7.07;;;;;;;13.32;43.39;98779.81;8411412;28;20230;-69
2023/02/16 15:39:16;;;;;;;7.13;6.43;;;;;;;13.38;44.15;98778.72;8411346;28;20225;-69
2023/02/16 15:43:29;;;;;;;11.83;8.60;;;;;;;13.36;43.83;98775.31;8411457;28;20228;-69
2023/02/16 15:47:32;;;;;;;7.50;6.40;;;;;;;13.33;43.54;98778.91;8411156;28;20325;-69
2023/02/16 15:51:37;;;;;;;10.63;7.30;;;;;;;13.29;43.84;98779.94;8411286;28;20229;-69
2023/02/16 15:55:44;;;;;;;8.27;6.83;;;;;;;12.58;44.13;98673.66;8411122;28;20229;-69
2023/02/16 15:59:50;;;;;;;8.57;6.73;;;;;;;12.91;44.57;98758.97;8410518;28;20257;-68
2023/02/16 16:03:53;;;;;;;8.47;6.37;;;;;;;12.87;44.49;98768.66;8410614;28;20244;-68
2023/02/16 16:07:57;;;;;;;11.17;9.33;;;;;;;12.96;44.46;98761.38;8410847;28;20260;-68
2023/02/16 16:12:01;;;;;;;13.27;11.17;;;;;;;12.87;44.80;98755.66;8410828;28;20228;-68
2023/02/16 16:16:08;;;;;;;10.83;9.63;;;;;;;12.83;45.20;98768.81;8410839;28;20237;-68
2023/02/16 16:20:26;;;;;;;12.60;11.30;;;;;;;12.78;45.55;98755.19;8410566;28;20239;-68
2023/02/16 16:24:34;;;;;;;12.48;11.27;;;;;;;13.08;45.31;98769.50;8409874;28;20412;-68
2023/02/16 16:28:39;;;;;;;9.13;8.20;;;;;;;12.68;45.97;98775.50;8416253;28;20627;-68
2023/02/16 16:32:44;;;;;;;7.50;6.80;;;;;;;12.63;46.34;98772.25;8415776;28;20227;-68
2023/02/16 16:36:53;;;;;;;12.07;8.90;;;;;;;12.51;46.24;98768.38;8416500;28;20234;-68
2023/02/16 16:40:58;;;;;;;10.60;8.90;;;;;;;12.31;47.19;98756.16;8416850;28;20236;-66
2023/02/16 16:45:04;;;;;;;11.23;9.03;;;;;;;12.23;47.85;98756.44;8416443;28;20329;-69
2023/02/16 16:49:13;;;;;;;11.23;8.40;;;;;;;12.18;47.77;98752.34;8416347;28;20231;-69
2023/02/16 16:53:52;;;;;;;10.33;8.93;;;;;;;12.24;47.22;98754.69;8416027;28;20482;-68
2023/02/16 16:57:56;;;;;;;16.47;11.40;;;;;;;12.19;47.41;98746.25;8313042;28;20263;-69
2023/02/16 17:01:59;;;;;;;10.67;9.07;;;;;;;12.11;47.82;98755.19;8377373;28;20246;-69
2023/02/16 17:06:05;;;;;;;17.03;10.13;;;;;;;12.01;47.99;98756.41;8449173;28;20235;-68
2023/02/16 17:10:09;;;;;;;15.57;11.83;;;;;;;12.02;48.23;98752.91;8449117;28;20244;-68
2023/02/16 17:14:16;;;;;;;18.73;15.53;;;;;;;12.01;48.36;98761.59;8448901;28;20223;-68
2023/02/16 17:18:20;;;;;;;17.80;14.13;;;;;;;11.80;49.48;98754.59;8449023;28;20232;-67
2023/02/16 17:22:24;;;;;;;25.50;18.50;;;;;;;11.70;48.91;98731.56;8448808;28;20216;-69
2023/02/16 17:26:26;;;;;;;19.97;17.60;;;;;;;11.85;48.97;98742.28;8448771;28;20247;-67
2023/02/16 17:30:29;;;;;;;20.00;15.67;;;;;;;11.82;49.28;98751.06;8448409;28;20232;-68
2023/02/16 17:34:32;;;;;;;21.43;17.10;;;;;;;11.73;49.89;98762.59;8448574;28;20224;-69
2023/02/16 17:38:39;;;;;;;20.03;16.57;;;;;;;11.66;49.70;98753.34;8447093;28;20234;-68
2023/02/16 17:42:44;;;;;;;27.83;20.30;;;;;;;11.62;49.80;98754.34;8447421;28;20578;-69
2023/02/16 17:46:48;;;;;;;27.77;22.27;;;;;;;11.61;50.15;98754.41;8447927;28;20238;-68
2023/02/16 17:50:52;;;;;;;27.10;21.57;;;;;;;11.47;49.98;98731.56;8447927;28;20349;-69
2023/02/16 17:54:56;;;;;;;21.33;18.40;;;;;;;11.56;50.37;98762.38;8447529;28;20232;-69
2023/02/16 17:58:59;;;;;;;20.90;16.80;;;;;;;11.45;50.09;98746.34;8447483;28;20231;-70
2023/02/16 18:03:01;;;;;;;19.63;16.60;;;;;;;11.47;50.04;98753.16;8447418;28;20248;-68
2023/02/16 18:07:06;;;;;;;20.23;16.60;;;;;;;11.49;50.43;98748.75;8446488;28;20546;-69
2023/02/16 18:11:10;;;;;;;33.27;25.17;;;;;;;11.46;49.96;98735.03;8447345;28;20231;-68
2023/02/16 18:15:13;;;;;;;23.17;18.47;;;;;;;11.42;49.86;98723.09;8446723;28;20231;-70
2023/02/16 18:19:16;;;;;;;22.43;16.53;;;;;;;11.61;49.70;98738.84;8447066;28;20505;-69
2023/02/16 18:23:19;;;;;;;17.17;12.87;;;;;;;11.65;49.25;98741.28;8446777;28;20555;-68
2023/02/16 18:27:25;;;;;;;13.83;12.43;;;;;;;11.54;49.71;98748.59;8446543;28;20234;-69
2023/02/16 18:31:30;;;;;;;13.77;10.73;;;;;;;11.52;49.47;98753.84;8446580;28;20311;-68
2023/02/16 18:35:33;;;;;;;17.50;14.80;;;;;;;11.61;49.47;98757.00;8446610;28;20282;-69
2023/02/16 18:39:36;;;;;;;18.03;15.00;;;;;;;11.55;49.73;98758.91;8446336;28;20228;-68
2023/02/16 18:43:40;;;;;;;17.77;15.77;;;;;;;11.53;49.78;98757.28;8446297;28;20331;-70
2023/02/16 18:47:44;;;;;;;17.63;15.47;;;;;;;11.47;49.87;98750.56;8445413;28;20235;-70
2023/02/16 18:51:46;;;;;;;18.87;16.87;;;;;;;11.52;49.58;98755.59;8445993;28;20523;-68
2023/02/16 18:55:51;;;;;;;16.00;9.63;;;;;;;13.05;71.92;98735.81;8445977;28;20402;-71
2023/02/16 18:59:57;;;;;;;16.90;14.40;;;;;;;13.98;58.09;98768.28;8445368;28;20554;-70
2023/02/16 19:04:01;;;;;;;20.47;18.27;;;;;;;14.15;51.09;98768.34;8445658;28;20586;-69
2023/02/16 19:08:05;;;;;;;24.43;21.87;;;;;;;14.42;48.52;98763.59;8445508;28;20234;-70
2023/02/16 19:12:08;;;;;;;34.17;28.80;;;;;;;13.16;47.33;98768.34;8445531;28;20223;-69
2023/02/16 19:16:12;;;;;;;33.33;27.03;;;;;;;12.60;48.31;98764.56;8445285;28;20238;-69
2023/02/16 19:20:17;;;;;;;29.50;26.30;;;;;;;12.42;49.18;98759.19;8444724;28;20235;-69
2023/02/16 19:24:20;;;;;;;33.37;28.63;;;;;;;12.20;49.98;98763.50;8445216;28;20329;-69
2023/02/16 19:28:22;;;;;;;38.53;30.87;;;;;;;12.02;49.68;98760.72;8444836;28;20217;-70
2023/02/16 19:32:26;;;;;;;32.83;26.23;;;;;;;11.88;50.19;98760.34;8444972;28;20542;-69
2023/02/16 19:36:30;;;;;;;32.17;26.30;;;;;;;11.77;50.73;98754.72;8445093;28;20243;-70
2023/02/16 19:40:33;;;;;;;24.70;22.03;;;;;;;11.67;50.60;98752.44;8444734;28;20223;-70